createdAt,value
2019-05-09T00:00:14.149Z,2.30
2019-05-09T00:01:14.180Z,2.20
2019-05-09T00:02:13.765Z,1.80
2019-05-09T00:03:13.839Z,2.20
2019-05-09T00:04:13.927Z,2.10
2019-05-09T00:05:13.805Z,2.40
2019-05-09T00:06:13.665Z,2.30
2019-05-09T00:07:14.025Z,2.40
2019-05-09T00:08:13.965Z,2.40
2019-05-09T00:09:13.885Z,2.20
2019-05-09T00:10:14.204Z,2.30
2019-05-09T00:11:14.552Z,2.10
2019-05-09T00:12:14.167Z,2.00
2019-05-09T00:13:13.631Z,2.10
2019-05-09T00:14:13.550Z,2.10
2019-05-09T00:15:13.632Z,2.20
2019-05-09T00:16:14.566Z,2.30
2019-05-09T00:17:14.057Z,2.10
2019-05-09T00:18:14.315Z,2.40
2019-05-09T00:19:13.573Z,2.10
2019-05-09T00:20:13.655Z,2.40
2019-05-09T00:21:13.431Z,2.30
2019-05-09T00:22:13.702Z,2.30
2019-05-09T00:23:13.546Z,2.40
2019-05-09T00:24:13.884Z,2.40
2019-05-09T00:25:13.231Z,2.40
2019-05-09T00:26:13.444Z,1.80
2019-05-09T00:27:14.130Z,2.20
2019-05-09T00:28:13.435Z,2.00
2019-05-09T00:29:14.102Z,1.90
2019-05-09T00:30:13.947Z,1.80
2019-05-09T00:31:13.628Z,1.90
2019-05-09T00:32:13.680Z,2.20
2019-05-09T00:33:14.271Z,1.90
2019-05-09T00:34:14.368Z,2.50
2019-05-09T00:35:14.171Z,1.90
2019-05-09T00:36:14.049Z,2.00
2019-05-09T00:37:13.538Z,2.20
2019-05-09T00:38:13.278Z,1.80
2019-05-09T00:39:13.383Z,2.00
2019-05-09T00:40:13.199Z,2.20
2019-05-09T00:41:13.986Z,1.80
2019-05-09T00:42:13.674Z,2.00
2019-05-09T00:43:13.191Z,2.20
2019-05-09T00:44:13.862Z,1.70
2019-05-09T00:45:13.300Z,1.80
2019-05-09T00:46:14.156Z,1.80
2019-05-09T00:47:13.548Z,1.80
2019-05-09T00:48:14.048Z,2.00
2019-05-09T00:49:14.049Z,2.00
2019-05-09T00:50:13.215Z,2.00
2019-05-09T00:51:14.042Z,1.80
2019-05-09T00:52:14.142Z,1.90
2019-05-09T00:53:13.740Z,1.80
2019-05-09T00:54:13.490Z,2.20
2019-05-09T00:55:13.265Z,2.00
2019-05-09T00:56:13.404Z,2.00
2019-05-09T00:57:13.759Z,1.90
2019-05-09T00:58:13.583Z,1.80
2019-05-09T00:59:13.466Z,2.20
2019-05-09T01:00:14.541Z,2.10
2019-05-09T01:01:13.286Z,2.10
2019-05-09T01:02:13.178Z,2.00
2019-05-09T01:03:14.187Z,2.40
2019-05-09T01:04:13.666Z,2.30
2019-05-09T01:05:13.233Z,2.00
2019-05-09T01:06:13.364Z,2.10
2019-05-09T01:07:13.915Z,2.10
2019-05-09T01:08:13.704Z,2.40
2019-05-09T01:09:13.720Z,2.10
2019-05-09T01:10:13.400Z,2.30
2019-05-09T01:11:15.295Z,2.00
2019-05-09T01:12:13.860Z,2.30
2019-05-09T01:13:14.215Z,1.90
2019-05-09T01:14:14.157Z,2.00
2019-05-09T01:15:13.365Z,2.20
2019-05-09T01:16:13.383Z,2.50
2019-05-09T01:17:13.624Z,2.30
2019-05-09T01:18:13.238Z,2.90
2019-05-09T01:19:14.172Z,2.70
2019-05-09T01:20:12.094Z,2.80
2019-05-09T01:21:13.389Z,2.90
2019-05-09T01:22:13.172Z,2.50
2019-05-09T01:23:14.145Z,2.90
2019-05-09T01:24:13.880Z,3.20
2019-05-09T01:25:13.444Z,3.40
2019-05-09T01:26:13.223Z,3.00
2019-05-09T01:27:14.093Z,3.30
2019-05-09T01:28:13.918Z,3.20
2019-05-09T01:29:13.840Z,3.30
2019-05-09T01:30:13.552Z,3.20
2019-05-09T01:31:13.296Z,3.70
2019-05-09T01:32:14.428Z,3.70
2019-05-09T01:33:13.572Z,4.10
2019-05-09T01:34:13.359Z,3.60
2019-05-09T01:35:13.199Z,3.80
2019-05-09T01:36:14.236Z,3.50
2019-05-09T01:37:13.903Z,3.50
2019-05-09T01:38:13.985Z,3.40
2019-05-09T01:39:13.776Z,3.70
2019-05-09T01:40:13.261Z,3.50
2019-05-09T01:41:24.607Z,4.10
2019-05-09T01:42:13.728Z,4.00
2019-05-09T01:43:13.818Z,4.10
2019-05-09T01:44:13.421Z,4.10
2019-05-09T01:45:14.003Z,4.60
2019-05-09T01:46:14.302Z,4.30
2019-05-09T01:47:13.708Z,4.60
2019-05-09T01:48:13.744Z,4.70
2019-05-09T01:49:13.766Z,4.50
2019-05-09T01:50:13.886Z,3.90
2019-05-09T01:51:13.746Z,4.40
2019-05-09T01:52:13.583Z,4.40
2019-05-09T01:53:13.389Z,3.70
2019-05-09T01:54:13.275Z,4.00
2019-05-09T01:55:14.034Z,4.30
2019-05-09T01:56:13.824Z,4.70
2019-05-09T01:57:13.691Z,4.40
2019-05-09T01:58:13.755Z,4.30
2019-05-09T01:59:13.705Z,3.90
2019-05-09T02:00:13.249Z,4.20
2019-05-09T02:01:13.438Z,4.40
2019-05-09T02:02:14.018Z,4.70
2019-05-09T02:03:13.878Z,4.20
2019-05-09T02:04:13.507Z,4.10
2019-05-09T02:05:13.495Z,4.30
2019-05-09T02:06:13.630Z,4.40
2019-05-09T02:07:13.282Z,4.20
2019-05-09T02:08:12.025Z,4.20
2019-05-09T02:09:13.869Z,4.50
2019-05-09T02:10:13.765Z,4.20
2019-05-09T02:11:13.213Z,4.30
2019-05-09T02:12:11.515Z,4.20
2019-05-09T02:13:13.559Z,4.00
2019-05-09T02:14:13.514Z,4.50
2019-05-09T02:15:13.048Z,4.10
2019-05-09T02:16:11.480Z,3.60
2019-05-09T02:17:13.836Z,4.20
2019-05-09T02:18:13.611Z,3.90
2019-05-09T02:19:13.427Z,4.10
2019-05-09T02:20:13.571Z,3.70
2019-05-09T02:21:14.312Z,3.90
2019-05-09T02:22:13.067Z,3.90
2019-05-09T02:23:11.402Z,4.10
2019-05-09T02:24:13.888Z,4.00
2019-05-09T02:25:13.052Z,4.10
2019-05-09T02:26:13.464Z,4.30
2019-05-09T02:27:13.232Z,4.00
2019-05-09T02:28:11.397Z,3.80
2019-05-09T02:29:13.655Z,4.10
2019-05-09T02:30:14.741Z,4.20
2019-05-09T02:31:11.333Z,3.80
2019-05-09T02:32:14.162Z,3.80
2019-05-09T02:33:14.425Z,3.80
2019-05-09T02:34:14.536Z,4.00
2019-05-09T02:35:11.262Z,4.40
2019-05-09T02:36:11.280Z,3.90
2019-05-09T02:37:11.259Z,4.40
2019-05-09T02:38:11.233Z,4.30
2019-05-09T02:39:11.260Z,4.60
2019-05-09T02:40:11.250Z,4.30
2019-05-09T02:41:11.241Z,3.90
2019-05-09T02:42:14.238Z,4.70
2019-05-09T02:43:11.187Z,4.50
2019-05-09T02:44:11.168Z,4.30
2019-05-09T02:45:11.158Z,4.60
2019-05-09T02:46:11.154Z,4.40
2019-05-09T02:47:11.179Z,4.20
2019-05-09T02:48:11.123Z,4.30
2019-05-09T02:49:11.121Z,3.80
2019-05-09T02:50:11.098Z,3.80
2019-05-09T02:51:11.102Z,3.60
2019-05-09T02:52:11.116Z,4.20
2019-05-09T02:53:11.063Z,4.10
2019-05-09T02:54:11.103Z,3.70
2019-05-09T02:55:11.043Z,3.90
2019-05-09T02:56:11.084Z,3.90
2019-05-09T02:57:11.021Z,4.10
2019-05-09T02:58:11.009Z,3.60
2019-05-09T02:59:11.003Z,3.50
2019-05-09T03:00:11.034Z,3.70
2019-05-09T03:01:10.978Z,3.70
2019-05-09T03:02:10.968Z,3.50
2019-05-09T03:03:10.958Z,3.90
2019-05-09T03:04:11.025Z,3.60
2019-05-09T03:05:10.979Z,3.90
2019-05-09T03:06:10.925Z,4.20
2019-05-09T03:07:10.956Z,4.20
2019-05-09T03:08:10.905Z,3.70
2019-05-09T03:09:10.884Z,4.00
2019-05-09T03:10:10.892Z,3.50
2019-05-09T03:11:10.859Z,3.50
2019-05-09T03:12:26.006Z,3.60
2019-05-09T03:13:11.834Z,3.40
2019-05-09T03:14:10.833Z,3.40
2019-05-09T03:15:10.822Z,3.60
2019-05-09T03:16:10.815Z,3.10
2019-05-09T03:17:10.822Z,3.40
2019-05-09T03:18:10.848Z,3.50
2019-05-09T03:19:10.774Z,3.30
2019-05-09T03:20:10.768Z,3.10
2019-05-09T03:21:10.756Z,3.20
2019-05-09T03:22:10.743Z,3.30
2019-05-09T03:23:10.728Z,2.90
2019-05-09T03:24:10.785Z,2.80
2019-05-09T03:25:10.709Z,3.40
2019-05-09T03:26:10.691Z,3.10
2019-05-09T03:27:10.698Z,3.10
2019-05-09T03:28:10.736Z,2.90
2019-05-09T03:29:10.660Z,2.80
2019-05-09T03:30:12.259Z,2.80
2019-05-09T03:31:10.661Z,3.20
2019-05-09T03:32:10.630Z,3.10
2019-05-09T03:33:10.757Z,3.00
2019-05-09T03:34:10.702Z,3.00
2019-05-09T03:35:10.593Z,3.10
2019-05-09T03:36:10.586Z,3.40
2019-05-09T03:37:10.579Z,3.10
2019-05-09T03:38:10.566Z,3.30
2019-05-09T03:39:10.573Z,3.50
2019-05-09T03:40:10.594Z,2.80
2019-05-09T03:41:10.526Z,3.40
2019-05-09T03:42:10.514Z,3.00
2019-05-09T03:43:10.508Z,3.10
2019-05-09T03:44:10.495Z,3.20
2019-05-09T03:45:10.497Z,3.10
2019-05-09T03:46:10.514Z,3.40
2019-05-09T03:47:10.463Z,3.30
2019-05-09T03:48:10.451Z,3.00
2019-05-09T03:49:10.479Z,3.30
2019-05-09T03:50:10.446Z,3.00
2019-05-09T03:51:10.461Z,3.60
2019-05-09T03:52:10.418Z,3.20
2019-05-09T03:53:10.403Z,3.20
2019-05-09T03:54:10.388Z,3.60
2019-05-09T03:55:10.371Z,3.70
2019-05-09T03:56:10.403Z,3.60
2019-05-09T03:57:10.398Z,3.70
2019-05-09T03:58:10.338Z,4.10
2019-05-09T03:59:10.331Z,4.10
2019-05-09T04:00:10.327Z,3.80
2019-05-09T04:01:10.948Z,3.70
2019-05-09T04:02:10.472Z,4.00
2019-05-09T04:03:10.332Z,3.60
2019-05-09T04:04:10.318Z,3.20
2019-05-09T04:05:10.304Z,3.30
2019-05-09T04:06:10.253Z,3.00
2019-05-09T04:07:10.254Z,2.90
2019-05-09T04:08:10.227Z,3.00
2019-05-09T04:09:10.216Z,3.50
2019-05-09T04:10:10.222Z,3.50
2019-05-09T04:11:10.235Z,3.40
2019-05-09T04:12:10.197Z,3.80
2019-05-09T04:13:11.111Z,4.10
2019-05-09T04:14:10.162Z,3.50
2019-05-09T04:15:10.190Z,3.40
2019-05-09T04:16:10.147Z,3.40
2019-05-09T04:17:10.175Z,3.60
2019-05-09T04:18:10.129Z,3.30
2019-05-09T04:19:10.106Z,3.70
2019-05-09T04:20:10.111Z,3.20
2019-05-09T04:21:10.083Z,3.50
2019-05-09T04:22:10.120Z,3.40
2019-05-09T04:23:10.067Z,3.70
2019-05-09T04:24:10.052Z,3.50
2019-05-09T04:25:10.041Z,3.30
2019-05-09T04:26:10.106Z,3.50
2019-05-09T04:27:10.065Z,3.60
2019-05-09T04:28:10.008Z,3.50
2019-05-09T04:29:10.046Z,3.70
2019-05-09T04:30:09.988Z,3.40
2019-05-09T04:31:10.014Z,3.70
2019-05-09T04:32:10.023Z,3.60
2019-05-09T04:33:09.995Z,3.60
2019-05-09T04:34:10.049Z,3.60
2019-05-09T04:35:09.942Z,3.50
2019-05-09T04:36:09.928Z,3.80
2019-05-09T04:37:12.095Z,3.70
2019-05-09T04:38:09.902Z,3.60
2019-05-09T04:39:12.821Z,3.50
2019-05-09T04:40:09.914Z,3.70
2019-05-09T04:41:09.865Z,3.80
2019-05-09T04:42:09.861Z,3.50
2019-05-09T04:43:15.566Z,3.70
2019-05-09T04:44:16.859Z,4.10
2019-05-09T04:45:10.819Z,3.90
2019-05-09T04:46:12.854Z,3.50
2019-05-09T04:47:10.815Z,3.50
2019-05-09T04:48:13.143Z,3.70
2019-05-09T04:49:10.786Z,3.80
2019-05-09T04:50:09.785Z,3.40
2019-05-09T04:51:09.757Z,3.30
2019-05-09T04:52:09.793Z,3.50
2019-05-09T04:53:09.735Z,3.70
2019-05-09T04:54:09.720Z,4.00
2019-05-09T04:55:09.731Z,3.80
2019-05-09T04:56:09.709Z,3.70
2019-05-09T04:57:09.734Z,3.40
2019-05-09T04:58:09.676Z,3.40
2019-05-09T04:59:09.680Z,3.60
2019-05-09T05:00:10.123Z,3.40
2019-05-09T05:01:09.688Z,4.00
2019-05-09T05:02:09.653Z,3.70
2019-05-09T05:03:09.621Z,3.60
2019-05-09T05:04:09.620Z,3.70
2019-05-09T05:05:09.650Z,3.60
2019-05-09T05:06:09.606Z,3.70
2019-05-09T05:07:09.578Z,3.20
2019-05-09T05:08:09.601Z,3.40
2019-05-09T05:09:09.567Z,3.70
2019-05-09T05:10:09.619Z,3.60
2019-05-09T05:11:09.553Z,3.80
2019-05-09T05:12:09.523Z,3.60
2019-05-09T05:13:23.218Z,3.30
2019-05-09T05:14:10.524Z,3.60
2019-05-09T05:15:09.536Z,3.20
2019-05-09T05:16:09.489Z,3.40
2019-05-09T05:17:11.373Z,3.60
2019-05-09T05:18:09.471Z,3.50
2019-05-09T05:19:09.657Z,3.40
2019-05-09T05:20:09.434Z,3.90
2019-05-09T05:21:09.478Z,3.40
2019-05-09T05:22:09.414Z,3.20
2019-05-09T05:23:09.406Z,2.90
2019-05-09T05:24:09.558Z,3.10
2019-05-09T05:25:09.480Z,2.50
2019-05-09T05:26:09.524Z,2.60
2019-05-09T05:27:09.381Z,2.70
2019-05-09T05:28:09.454Z,2.70
2019-05-09T05:29:09.363Z,2.40
2019-05-09T05:30:09.337Z,2.70
2019-05-09T05:31:09.344Z,2.60
2019-05-09T05:32:09.360Z,2.50
2019-05-09T05:33:09.294Z,2.70
2019-05-09T05:34:09.376Z,2.70
2019-05-09T05:35:09.287Z,2.70
2019-05-09T05:36:09.256Z,3.10
2019-05-09T05:37:09.264Z,2.60
2019-05-09T05:38:09.240Z,2.30
2019-05-09T05:39:09.284Z,2.40
2019-05-09T05:40:09.230Z,2.70
2019-05-09T05:41:09.198Z,2.50
2019-05-09T05:42:09.257Z,2.50
2019-05-09T05:43:09.219Z,2.50
2019-05-09T05:44:09.183Z,2.40
2019-05-09T05:45:09.162Z,2.80
2019-05-09T05:46:09.183Z,2.10
2019-05-09T05:47:09.174Z,2.40
2019-05-09T05:48:09.276Z,2.40
2019-05-09T05:49:09.118Z,2.40
2019-05-09T05:50:09.102Z,2.70
2019-05-09T05:51:09.155Z,1.80
2019-05-09T05:52:09.121Z,2.20
2019-05-09T05:53:09.203Z,2.30
2019-05-09T05:54:09.239Z,2.10
2019-05-09T05:55:09.040Z,2.40
2019-05-09T05:56:09.094Z,2.00
2019-05-09T05:57:09.031Z,2.00
2019-05-09T05:58:09.010Z,1.90
2019-05-09T05:59:09.072Z,1.90
2019-05-09T06:00:09.113Z,2.00
2019-05-09T06:01:09.008Z,2.10
2019-05-09T06:02:09.075Z,1.80
2019-05-09T06:03:08.966Z,1.80
2019-05-09T06:04:09.112Z,1.70
2019-05-09T06:05:08.984Z,2.10
2019-05-09T06:06:09.046Z,1.90
2019-05-09T06:07:08.960Z,1.90
2019-05-09T06:08:08.903Z,1.80
2019-05-09T06:09:09.434Z,2.30
2019-05-09T06:10:08.907Z,2.30
2019-05-09T06:11:12.096Z,1.60
2019-05-09T06:12:08.976Z,1.80
2019-05-09T06:13:08.918Z,1.90
2019-05-09T06:14:11.785Z,2.00
2019-05-09T06:15:08.861Z,2.20
2019-05-09T06:16:08.875Z,2.00
2019-05-09T06:17:08.791Z,1.80
2019-05-09T06:18:08.857Z,1.80
2019-05-09T06:19:09.051Z,1.80
2019-05-09T06:20:09.146Z,1.80
2019-05-09T06:21:09.056Z,1.50
2019-05-09T06:22:08.800Z,2.00
2019-05-09T06:23:08.791Z,1.60
2019-05-09T06:24:08.732Z,1.60
2019-05-09T06:25:09.958Z,2.00
2019-05-09T06:26:10.340Z,1.70
2019-05-09T06:27:10.325Z,1.80
2019-05-09T06:28:08.673Z,1.40
2019-05-09T06:29:08.736Z,1.60
2019-05-09T06:30:08.876Z,1.50
2019-05-09T06:31:08.641Z,1.50
2019-05-09T06:32:08.629Z,1.60
2019-05-09T06:33:09.129Z,1.90
2019-05-09T06:34:08.636Z,1.70
2019-05-09T06:35:08.602Z,1.70
2019-05-09T06:36:08.696Z,1.80
2019-05-09T06:37:09.238Z,1.50
2019-05-09T06:38:08.558Z,1.80
2019-05-09T06:39:08.582Z,1.30
2019-05-09T06:40:08.556Z,1.60
2019-05-09T06:41:09.643Z,1.70
2019-05-09T06:42:09.328Z,1.50
2019-05-09T06:43:08.524Z,2.00
2019-05-09T06:44:14.344Z,1.80
2019-05-09T06:45:09.563Z,1.70
2019-05-09T06:46:08.457Z,1.80
2019-05-09T06:47:08.523Z,2.00
2019-05-09T06:48:14.761Z,1.60
2019-05-09T06:49:24.763Z,1.80
2019-05-09T06:50:10.337Z,1.40
2019-05-09T06:51:08.535Z,1.80
2019-05-09T06:52:08.857Z,1.80
2019-05-09T06:53:08.585Z,1.60
2019-05-09T06:54:08.379Z,1.30
2019-05-09T06:55:08.834Z,1.30
2019-05-09T06:56:08.356Z,1.60
2019-05-09T06:57:08.349Z,1.70
2019-05-09T06:58:08.964Z,1.80
2019-05-09T06:59:08.339Z,1.80
2019-05-09T07:00:08.489Z,1.60
2019-05-09T07:01:08.288Z,1.50
2019-05-09T07:02:08.501Z,1.50
2019-05-09T07:03:08.400Z,1.60
2019-05-09T07:04:09.268Z,1.30
2019-05-09T07:05:08.444Z,1.60
2019-05-09T07:06:08.528Z,1.50
2019-05-09T07:07:08.276Z,1.50
2019-05-09T07:08:08.259Z,1.70
2019-05-09T07:09:08.500Z,1.80
2019-05-09T07:10:08.202Z,1.30
2019-05-09T07:11:08.181Z,1.80
2019-05-09T07:12:08.161Z,1.70
2019-05-09T07:13:08.420Z,1.60
2019-05-09T07:14:08.436Z,1.70
2019-05-09T07:15:08.996Z,1.60
2019-05-09T07:16:08.919Z,2.10
2019-05-09T07:17:08.644Z,1.90
2019-05-09T07:18:08.314Z,2.30
2019-05-09T07:19:08.178Z,2.30
2019-05-09T07:20:08.590Z,2.20
2019-05-09T07:21:08.746Z,2.00
2019-05-09T07:22:09.113Z,2.20
2019-05-09T07:23:08.999Z,2.40
2019-05-09T07:24:08.792Z,2.00
2019-05-09T07:25:10.998Z,2.10
2019-05-09T07:26:08.404Z,2.20
2019-05-09T07:27:08.014Z,2.20
2019-05-09T07:28:08.769Z,2.20
2019-05-09T07:29:08.049Z,2.20
2019-05-09T07:30:07.969Z,2.20
2019-05-09T07:31:11.415Z,2.50
2019-05-09T07:32:07.960Z,3.00
2019-05-09T07:33:08.609Z,2.50
2019-05-09T07:34:08.594Z,2.80
2019-05-09T07:35:08.913Z,2.80
2019-05-09T07:36:08.523Z,2.10
2019-05-09T07:37:08.469Z,2.40
2019-05-09T07:38:13.431Z,3.20
2019-05-09T07:39:08.860Z,2.40
2019-05-09T07:40:08.572Z,2.40
2019-05-09T07:41:08.811Z,2.30
2019-05-09T07:42:07.871Z,2.70
2019-05-09T07:43:08.004Z,2.50
2019-05-09T07:44:07.872Z,2.10
2019-05-09T07:45:09.590Z,2.60
2019-05-09T07:46:08.847Z,2.60
2019-05-09T07:47:07.809Z,2.40
2019-05-09T07:48:07.834Z,2.70
2019-05-09T07:49:08.591Z,2.60
2019-05-09T07:50:08.689Z,2.60
2019-05-09T07:51:08.113Z,2.70
2019-05-09T07:52:10.278Z,2.50
2019-05-09T07:53:08.845Z,2.80
2019-05-09T07:54:21.075Z,3.00
2019-05-09T07:55:09.107Z,3.00
2019-05-09T07:56:08.140Z,2.70
2019-05-09T07:57:08.492Z,2.90
2019-05-09T07:58:08.364Z,3.00
2019-05-09T07:59:07.855Z,2.70
2019-05-09T08:00:07.892Z,2.80
2019-05-09T08:01:08.635Z,2.40
2019-05-09T08:02:08.738Z,2.50
2019-05-09T08:03:12.046Z,3.00
2019-05-09T08:04:08.591Z,2.90
2019-05-09T08:05:08.490Z,2.50
2019-05-09T08:06:08.751Z,2.60
2019-05-09T08:07:08.375Z,3.10
2019-05-09T08:08:08.143Z,2.80
2019-05-09T08:09:08.318Z,3.10
2019-05-09T08:10:09.045Z,2.90
2019-05-09T08:11:09.002Z,2.80
2019-05-09T08:12:07.833Z,2.80
2019-05-09T08:13:21.177Z,2.70
2019-05-09T08:14:10.862Z,2.50
2019-05-09T08:15:16.114Z,2.50
2019-05-09T08:16:14.092Z,2.60
2019-05-09T08:17:08.739Z,2.70
2019-05-09T08:18:08.427Z,2.20
2019-05-09T08:19:07.725Z,2.60
2019-05-09T08:20:08.128Z,2.60
2019-05-09T08:21:08.445Z,2.50
2019-05-09T08:22:08.147Z,2.60
2019-05-09T08:23:08.632Z,2.60
2019-05-09T08:24:08.221Z,2.20
2019-05-09T08:25:08.290Z,2.10
2019-05-09T08:26:08.716Z,2.10
2019-05-09T08:27:08.498Z,2.10
2019-05-09T08:28:09.078Z,2.20
2019-05-09T08:29:09.463Z,1.80
2019-05-09T08:30:08.042Z,1.90
2019-05-09T08:31:08.383Z,1.90
2019-05-09T08:32:09.171Z,1.80
2019-05-09T08:33:08.492Z,1.90
2019-05-09T08:34:09.236Z,1.80
2019-05-09T08:35:08.526Z,1.80
2019-05-09T08:36:09.122Z,1.70
2019-05-09T08:37:08.274Z,2.00
2019-05-09T08:38:08.505Z,1.70
2019-05-09T08:39:08.303Z,1.60
2019-05-09T08:40:08.054Z,1.40
2019-05-09T08:41:09.056Z,1.50
2019-05-09T08:42:08.586Z,1.40
2019-05-09T08:43:07.637Z,1.50
2019-05-09T08:44:07.972Z,1.50
2019-05-09T08:45:17.415Z,1.50
2019-05-09T08:46:08.239Z,1.50
2019-05-09T08:47:09.019Z,1.10
2019-05-09T08:48:09.613Z,1.30
2019-05-09T08:49:08.177Z,1.20
2019-05-09T08:50:08.009Z,1.20
2019-05-09T08:51:08.858Z,1.30
2019-05-09T08:52:12.744Z,1.30
2019-05-09T08:53:08.434Z,1.30
2019-05-09T08:54:09.285Z,1.00
2019-05-09T08:55:08.857Z,1.10
2019-05-09T08:56:09.825Z,1.10
2019-05-09T08:57:08.874Z,1.00
2019-05-09T08:58:08.154Z,1.10
2019-05-09T08:59:08.306Z,0.80
2019-05-09T09:00:08.174Z,0.80
2019-05-09T09:01:11.046Z,0.80
2019-05-09T09:02:14.928Z,1.00
2019-05-09T09:03:08.224Z,1.00
2019-05-09T09:04:08.848Z,0.70
2019-05-09T09:05:08.677Z,0.80
2019-05-09T09:06:08.250Z,0.90
2019-05-09T09:07:08.423Z,1.20
2019-05-09T09:08:08.329Z,1.00
2019-05-09T09:09:08.082Z,0.70
2019-05-09T09:10:08.516Z,0.80
2019-05-09T09:11:08.596Z,0.60
2019-05-09T09:12:23.141Z,0.60
2019-05-09T09:13:08.863Z,0.80
2019-05-09T09:14:14.660Z,0.80
2019-05-09T09:15:17.868Z,0.70
2019-05-09T09:16:23.079Z,1.00
2019-05-09T09:17:10.028Z,0.70
2019-05-09T09:18:08.867Z,0.60
2019-05-09T09:19:08.923Z,0.80
2019-05-09T09:20:07.747Z,0.80
2019-05-09T09:21:08.061Z,0.70
2019-05-09T09:22:08.830Z,0.70
2019-05-09T09:23:09.369Z,0.70
2019-05-09T09:24:08.759Z,0.70
2019-05-09T09:25:07.706Z,0.60
2019-05-09T09:26:08.061Z,0.70
2019-05-09T09:27:07.668Z,0.80
2019-05-09T09:28:08.736Z,0.80
2019-05-09T09:29:08.484Z,0.90
2019-05-09T09:30:17.873Z,0.90
2019-05-09T09:31:08.345Z,0.70
2019-05-09T09:32:08.358Z,0.50
2019-05-09T09:33:11.345Z,0.60
2019-05-09T09:34:09.121Z,0.80
2019-05-09T09:35:08.790Z,0.60
2019-05-09T09:36:08.790Z,0.80
2019-05-09T09:37:12.263Z,0.90
2019-05-09T09:38:09.070Z,0.70
2019-05-09T09:39:08.004Z,1.00
2019-05-09T09:40:08.695Z,0.60
2019-05-09T09:41:07.765Z,0.80
2019-05-09T09:42:09.090Z,0.60
2019-05-09T09:43:09.287Z,0.90
2019-05-09T09:44:08.781Z,0.80
2019-05-09T09:45:07.809Z,0.80
2019-05-09T09:46:14.008Z,0.80
2019-05-09T09:47:07.536Z,0.80
2019-05-09T09:48:09.042Z,0.70
2019-05-09T09:49:07.943Z,0.90
2019-05-09T09:50:08.601Z,0.70
2019-05-09T09:51:08.017Z,0.80
2019-05-09T09:52:08.555Z,0.60
2019-05-09T09:53:08.687Z,0.90
2019-05-09T09:54:08.785Z,0.60
2019-05-09T09:55:08.764Z,0.70
2019-05-09T09:56:08.471Z,0.60
2019-05-09T09:57:09.671Z,0.80
2019-05-09T09:58:08.260Z,0.90
2019-05-09T09:59:08.161Z,0.70
2019-05-09T10:00:07.577Z,0.70
2019-05-09T10:01:08.703Z,0.70
2019-05-09T10:02:09.997Z,0.90
2019-05-09T10:03:07.963Z,0.60
2019-05-09T10:04:16.772Z,0.90
2019-05-09T10:05:07.750Z,0.70
2019-05-09T10:06:06.569Z,0.90
2019-05-09T10:07:08.679Z,0.70
2019-05-09T10:08:10.252Z,0.70
2019-05-09T10:09:09.327Z,0.70
2019-05-09T10:10:07.887Z,0.70
2019-05-09T10:11:08.112Z,0.80
2019-05-09T10:12:09.050Z,0.70
2019-05-09T10:13:10.475Z,0.70
2019-05-09T10:14:07.872Z,0.80
2019-05-09T10:15:08.315Z,0.70
2019-05-09T10:16:09.718Z,0.70
2019-05-09T10:17:10.321Z,0.70
2019-05-09T10:18:07.502Z,0.70
2019-05-09T10:19:08.315Z,0.50
2019-05-09T10:20:06.229Z,0.60
2019-05-09T10:21:07.208Z,0.70
2019-05-09T10:22:08.291Z,0.70
2019-05-09T10:23:15.186Z,0.90
2019-05-09T10:24:08.057Z,0.80
2019-05-09T10:25:07.921Z,0.70
2019-05-09T10:26:08.478Z,0.70
2019-05-09T10:27:08.663Z,0.70
2019-05-09T10:28:08.539Z,0.60
2019-05-09T10:29:06.405Z,0.70
2019-05-09T10:30:06.005Z,0.80
2019-05-09T10:31:05.983Z,0.80
2019-05-09T10:32:05.952Z,0.70
2019-05-09T10:33:05.990Z,0.80
2019-05-09T10:34:05.987Z,0.70
2019-05-09T10:35:08.596Z,0.90
2019-05-09T10:36:08.260Z,0.60
2019-05-09T10:37:07.704Z,0.50
2019-05-09T10:38:08.704Z,0.60
2019-05-09T10:39:08.162Z,0.80
2019-05-09T10:40:06.552Z,0.70
2019-05-09T10:41:05.910Z,0.50
2019-05-09T10:42:07.836Z,0.70
2019-05-09T10:43:08.179Z,0.60
2019-05-09T10:44:08.136Z,0.60
2019-05-09T10:45:07.448Z,0.90
2019-05-09T10:46:08.145Z,0.60
2019-05-09T10:47:08.598Z,0.60
2019-05-09T10:48:08.179Z,0.80
2019-05-09T10:49:08.246Z,0.60
2019-05-09T10:50:08.234Z,0.60
2019-05-09T10:51:10.293Z,0.60
2019-05-09T10:52:05.782Z,0.50
2019-05-09T10:53:07.987Z,0.40
2019-05-09T10:54:07.901Z,0.70
2019-05-09T10:55:05.715Z,0.70
2019-05-09T10:56:08.592Z,0.60
2019-05-09T10:57:05.656Z,0.80
2019-05-09T10:58:08.091Z,0.50
2019-05-09T10:59:07.791Z,0.70
2019-05-09T11:00:08.476Z,0.80
2019-05-09T11:01:08.999Z,0.50
2019-05-09T11:02:09.206Z,0.60
2019-05-09T11:03:08.541Z,0.80
2019-05-09T11:04:07.924Z,0.50
2019-05-09T11:05:08.219Z,0.60
2019-05-09T11:06:08.340Z,0.60
2019-05-09T11:07:08.091Z,0.60
2019-05-09T11:08:08.061Z,0.60
2019-05-09T11:09:05.563Z,0.60
2019-05-09T11:10:24.030Z,0.60
2019-05-09T11:11:09.341Z,0.50
2019-05-09T11:12:07.803Z,0.90
2019-05-09T11:13:07.502Z,0.60
2019-05-09T11:14:05.467Z,0.60
2019-05-09T11:15:05.527Z,0.60
2019-05-09T11:16:07.550Z,0.60
2019-05-09T11:17:14.153Z,0.50
2019-05-09T11:18:08.185Z,0.60
2019-05-09T11:19:07.906Z,0.50
2019-05-09T11:20:08.442Z,0.60
2019-05-09T11:21:08.189Z,0.40
2019-05-09T11:22:07.831Z,0.50
2019-05-09T11:23:07.974Z,0.60
2019-05-09T11:24:08.120Z,0.80
2019-05-09T11:25:08.617Z,0.50
2019-05-09T11:26:05.335Z,0.70
2019-05-09T11:27:08.313Z,0.50
2019-05-09T11:28:10.400Z,0.80
2019-05-09T11:29:07.996Z,0.60
2019-05-09T11:30:05.322Z,0.50
2019-05-09T11:31:07.877Z,0.60
2019-05-09T11:32:10.937Z,0.50
2019-05-09T11:33:07.674Z,0.50
2019-05-09T11:34:05.268Z,0.70
2019-05-09T11:35:05.333Z,0.60
2019-05-09T11:36:05.215Z,0.60
2019-05-09T11:37:05.352Z,0.80
2019-05-09T11:38:08.163Z,0.70
2019-05-09T11:39:10.278Z,0.70
2019-05-09T11:40:06.194Z,0.60
2019-05-09T11:41:05.160Z,0.50
2019-05-09T11:42:05.238Z,0.70
2019-05-09T11:43:05.188Z,0.60
2019-05-09T11:44:08.222Z,0.40
2019-05-09T11:45:07.471Z,0.70
2019-05-09T11:46:05.214Z,0.50
2019-05-09T11:47:05.082Z,0.50
2019-05-09T11:48:07.959Z,0.70
2019-05-09T11:49:05.053Z,0.50
2019-05-09T11:50:05.120Z,0.60
2019-05-09T11:51:05.094Z,0.50
2019-05-09T11:52:05.037Z,0.50
2019-05-09T11:53:05.035Z,0.70
2019-05-09T11:54:05.054Z,0.60
2019-05-09T11:55:05.036Z,0.60
2019-05-09T11:56:05.033Z,0.70
2019-05-09T11:57:04.988Z,0.60
2019-05-09T11:58:04.988Z,0.60
2019-05-09T11:59:05.011Z,0.80
2019-05-09T12:00:05.004Z,0.50
2019-05-09T12:01:04.926Z,0.60
2019-05-09T12:02:04.915Z,0.60
2019-05-09T12:03:04.939Z,0.70
2019-05-09T12:04:04.910Z,0.60
2019-05-09T12:05:04.873Z,0.70
2019-05-09T12:06:04.935Z,0.60
2019-05-09T12:07:04.855Z,0.70
2019-05-09T12:08:04.857Z,0.50
2019-05-09T12:09:04.832Z,0.50
2019-05-09T12:10:07.296Z,0.80
2019-05-09T12:11:04.934Z,0.60
2019-05-09T12:12:04.840Z,0.70
2019-05-09T12:13:04.797Z,0.60
2019-05-09T12:14:04.777Z,0.50
2019-05-09T12:15:04.763Z,0.60
2019-05-09T12:16:04.816Z,0.70
2019-05-09T12:17:04.740Z,0.60
2019-05-09T12:18:10.662Z,0.60
2019-05-09T12:19:05.714Z,0.60
2019-05-09T12:20:10.542Z,1.00
2019-05-09T12:21:05.754Z,0.50
2019-05-09T12:22:04.687Z,0.60
2019-05-09T12:23:04.672Z,0.50
2019-05-09T12:24:04.749Z,0.40
2019-05-09T12:25:04.699Z,0.80
2019-05-09T12:26:04.786Z,0.50
2019-05-09T12:27:04.644Z,0.60
2019-05-09T12:28:04.645Z,0.60
2019-05-09T12:29:04.642Z,0.70
2019-05-09T12:30:04.610Z,0.50
2019-05-09T12:31:04.616Z,0.50
2019-05-09T12:32:04.621Z,0.60
2019-05-09T12:33:04.571Z,0.90
2019-05-09T12:34:04.654Z,0.50
2019-05-09T12:35:04.621Z,0.60
2019-05-09T12:36:04.537Z,0.70
2019-05-09T12:37:04.539Z,0.50
2019-05-09T12:38:04.555Z,0.60
2019-05-09T12:39:04.493Z,0.70
2019-05-09T12:40:04.495Z,0.70
2019-05-09T12:41:04.493Z,0.70
2019-05-09T12:42:04.500Z,0.60
2019-05-09T12:43:04.452Z,0.70
2019-05-09T12:44:04.518Z,0.70
2019-05-09T12:45:04.475Z,0.80
2019-05-09T12:46:04.446Z,0.70
2019-05-09T12:47:04.473Z,0.60
2019-05-09T12:48:13.900Z,0.50
2019-05-09T12:49:05.378Z,0.50
2019-05-09T12:50:04.381Z,0.50
2019-05-09T12:51:04.387Z,0.60
2019-05-09T12:52:04.408Z,0.50
2019-05-09T12:53:04.394Z,0.60
2019-05-09T12:54:04.327Z,0.60
2019-05-09T12:55:04.340Z,0.60
2019-05-09T12:56:04.310Z,0.60
2019-05-09T12:57:04.382Z,0.70
2019-05-09T12:58:04.385Z,0.60
2019-05-09T12:59:04.284Z,0.70
2019-05-09T13:00:04.497Z,0.50
2019-05-09T13:01:04.265Z,0.70
2019-05-09T13:02:04.297Z,0.50
2019-05-09T13:03:04.235Z,0.50
2019-05-09T13:04:04.267Z,0.70
2019-05-09T13:05:04.214Z,0.70
2019-05-09T13:06:04.240Z,0.50
2019-05-09T13:07:04.359Z,0.60
2019-05-09T13:08:04.232Z,0.50
2019-05-09T13:09:04.686Z,0.50
2019-05-09T13:10:04.150Z,0.60
2019-05-09T13:11:04.161Z,0.50
2019-05-09T13:12:04.188Z,0.40
2019-05-09T13:13:04.149Z,0.70
2019-05-09T13:14:04.149Z,0.50
2019-05-09T13:15:04.133Z,0.70
2019-05-09T13:16:04.102Z,0.70
2019-05-09T13:17:04.127Z,0.60
2019-05-09T13:18:04.058Z,0.70